createdAt,value
2022-08-21T00:01:43.182Z,3.13
2022-08-21T00:04:11.225Z,3.27
2022-08-21T00:06:41.772Z,2.53
2022-08-21T00:09:09.501Z,2.70
2022-08-21T00:11:38.747Z,2.87
2022-08-21T00:14:08.035Z,3.47
2022-08-21T00:16:34.843Z,3.10
2022-08-21T00:19:01.720Z,3.03
2022-08-21T00:21:28.533Z,3.40
2022-08-21T00:23:55.299Z,3.10
2022-08-21T00:26:21.971Z,3.30
2022-08-21T00:28:49.869Z,3.37
2022-08-21T00:31:17.437Z,3.20
2022-08-21T00:33:44.281Z,3.00
2022-08-21T00:36:11.560Z,3.00
2022-08-21T00:38:38.264Z,3.30
2022-08-21T00:41:36.786Z,3.13
2022-08-21T00:43:55.929Z,2.73
2022-08-21T00:46:23.341Z,2.97
2022-08-21T00:48:57.171Z,2.80
2022-08-21T00:51:38.449Z,2.50
2022-08-21T00:54:07.026Z,3.03
2022-08-21T00:56:42.928Z,2.80
2022-08-21T00:59:12.979Z,3.50
2022-08-21T01:01:39.862Z,2.63
2022-08-21T01:04:06.700Z,2.83
2022-08-21T01:06:33.366Z,2.70
2022-08-21T01:09:00.180Z,2.97
2022-08-21T01:11:26.959Z,2.87
2022-08-21T01:13:54.372Z,3.43
2022-08-21T01:16:22.768Z,2.80
2022-08-21T01:18:50.755Z,2.50
2022-08-21T01:21:21.871Z,2.60
2022-08-21T01:23:53.404Z,3.10
2022-08-21T01:26:24.844Z,2.50
2022-08-21T01:29:06.826Z,2.73
2022-08-21T01:31:34.583Z,3.10
2022-08-21T01:34:01.699Z,2.63
2022-08-21T01:36:29.019Z,3.03
2022-08-21T01:38:56.323Z,2.90
2022-08-21T01:41:23.809Z,2.90
2022-08-21T01:43:50.593Z,3.07
2022-08-21T01:46:17.802Z,2.70
2022-08-21T01:48:44.686Z,2.67
2022-08-21T01:51:11.385Z,2.93
2022-08-21T01:53:38.242Z,2.70
2022-08-21T01:56:12.310Z,3.10
2022-08-21T01:58:41.954Z,3.00
2022-08-21T02:01:10.303Z,3.40
2022-08-21T02:03:37.564Z,3.10
2022-08-21T02:06:06.186Z,2.60
2022-08-21T02:08:33.103Z,2.80
2022-08-21T02:11:00.866Z,2.80
2022-08-21T02:13:27.605Z,2.67
2022-08-21T02:15:54.312Z,3.03
2022-08-21T02:18:21.005Z,2.80
2022-08-21T02:20:49.516Z,2.93
2022-08-21T02:23:26.470Z,3.10
2022-08-21T02:26:05.757Z,2.80
2022-08-21T02:28:33.185Z,3.30
2022-08-21T02:31:00.215Z,2.90
2022-08-21T02:33:27.087Z,3.27
2022-08-21T02:35:54.941Z,3.10
2022-08-21T02:38:27.968Z,3.50
2022-08-21T02:40:55.634Z,2.53
2022-08-21T02:43:25.010Z,3.30
2022-08-21T02:45:52.405Z,2.83
2022-08-21T02:48:23.785Z,3.43
2022-08-21T02:50:59.466Z,3.10
2022-08-21T02:53:27.446Z,3.10
2022-08-21T02:55:54.357Z,3.00
2022-08-21T02:58:25.050Z,3.20
2022-08-21T03:00:52.459Z,2.53
2022-08-21T03:03:19.196Z,2.77
2022-08-21T03:05:45.944Z,3.10
2022-08-21T03:08:14.950Z,3.13
2022-08-21T03:10:45.437Z,3.70
2022-08-21T03:13:12.693Z,2.50
2022-08-21T03:15:40.955Z,2.90
2022-08-21T03:18:09.367Z,3.67
2022-08-21T03:20:37.884Z,3.20
2022-08-21T03:23:12.755Z,2.90
2022-08-21T03:25:42.150Z,3.30
2022-08-21T03:28:14.045Z,3.20
2022-08-21T03:30:46.458Z,3.30
2022-08-21T03:33:15.105Z,3.60
2022-08-21T03:35:43.853Z,3.73
2022-08-21T03:38:11.110Z,3.50
2022-08-21T03:40:37.823Z,3.63
2022-08-21T03:43:04.812Z,3.90
2022-08-21T03:45:31.603Z,2.87
2022-08-21T03:48:00.951Z,3.30
2022-08-21T03:50:31.544Z,3.17
2022-08-21T03:52:58.623Z,2.80
2022-08-21T03:55:26.387Z,3.37
2022-08-21T03:57:53.564Z,2.90
2022-08-21T04:00:21.367Z,3.00
2022-08-21T04:02:48.546Z,3.63
2022-08-21T04:05:27.896Z,3.53
2022-08-21T04:07:59.460Z,4.20
2022-08-21T04:10:27.997Z,3.23
2022-08-21T04:12:55.356Z,3.07
2022-08-21T04:15:23.877Z,3.17
2022-08-21T04:17:50.761Z,3.00
2022-08-21T04:20:18.977Z,3.00
2022-08-21T04:22:46.286Z,3.60
2022-08-21T04:25:16.985Z,3.47
2022-08-21T04:27:43.849Z,3.43
2022-08-21T04:30:11.476Z,3.27
2022-08-21T04:32:39.120Z,3.20
2022-08-21T04:35:09.862Z,3.80
2022-08-21T04:37:41.617Z,3.23
2022-08-21T04:40:11.131Z,3.37
2022-08-21T04:42:47.584Z,3.27
2022-08-21T04:45:44.182Z,3.40
2022-08-21T04:48:14.800Z,3.53
2022-08-21T04:50:49.898Z,3.33
2022-08-21T04:53:21.455Z,3.57
2022-08-21T04:55:48.779Z,3.67
2022-08-21T04:58:18.425Z,3.43
2022-08-21T05:00:46.800Z,4.43
2022-08-21T05:03:15.775Z,4.43
2022-08-21T05:05:44.137Z,4.03
2022-08-21T05:08:15.308Z,3.50
2022-08-21T05:10:43.277Z,3.40
2022-08-21T05:13:10.813Z,3.97
2022-08-21T05:15:38.278Z,3.57
2022-08-21T05:18:05.188Z,3.70
2022-08-21T05:20:31.936Z,3.90
2022-08-21T05:22:58.971Z,3.87
2022-08-21T05:25:26.016Z,3.50
2022-08-21T05:27:54.942Z,3.30
2022-08-21T05:30:22.668Z,3.40
2022-08-21T05:32:49.427Z,4.10
2022-08-21T05:35:16.142Z,3.90
2022-08-21T05:37:42.907Z,3.60
2022-08-21T05:40:22.741Z,3.23
2022-08-21T05:42:54.422Z,4.00
2022-08-21T05:45:43.537Z,4.20
2022-08-21T05:48:28.705Z,3.43
2022-08-21T05:50:55.401Z,3.70
2022-08-21T05:53:23.742Z,3.20
2022-08-21T05:55:52.000Z,3.43
2022-08-21T05:58:21.265Z,3.53
2022-08-21T06:00:50.574Z,3.13
2022-08-21T06:03:22.074Z,3.60
2022-08-21T06:05:49.203Z,3.17
2022-08-21T06:08:17.741Z,4.07
2022-08-21T06:10:45.446Z,3.03
2022-08-21T06:13:12.782Z,3.30
2022-08-21T06:15:39.763Z,3.97
2022-08-21T06:18:06.777Z,3.80
2022-08-21T06:20:33.604Z,3.47
2022-08-21T06:23:00.664Z,3.33
2022-08-21T06:25:27.833Z,3.27
2022-08-21T06:28:00.728Z,3.53
2022-08-21T06:30:27.436Z,4.10
2022-08-21T06:32:54.140Z,4.00
2022-08-21T06:35:20.919Z,3.90
2022-08-21T06:37:47.607Z,3.73
2022-08-21T06:40:14.344Z,3.10
2022-08-21T06:42:42.936Z,3.57
2022-08-21T06:45:11.767Z,3.97
2022-08-21T06:47:38.455Z,4.03
2022-08-21T06:50:05.861Z,3.10
2022-08-21T06:52:32.604Z,3.50
2022-08-21T06:54:59.245Z,3.47
2022-08-21T06:57:26.578Z,4.03
2022-08-21T06:59:53.227Z,4.53
2022-08-21T07:02:19.846Z,4.13
2022-08-21T07:04:46.527Z,4.83
2022-08-21T07:07:13.182Z,4.43
2022-08-21T07:09:40.458Z,4.00
2022-08-21T07:12:07.439Z,4.13
2022-08-21T07:14:34.112Z,4.13
2022-08-21T07:17:01.603Z,3.90
2022-08-21T07:19:28.420Z,4.13
2022-08-21T07:22:00.649Z,4.33
2022-08-21T07:24:27.382Z,4.60
2022-08-21T07:26:54.038Z,3.53
2022-08-21T07:29:20.803Z,4.70
2022-08-21T07:31:47.508Z,4.80
2022-08-21T07:34:14.669Z,4.20
2022-08-21T07:36:41.417Z,4.47
2022-08-21T07:39:08.897Z,4.63
2022-08-21T07:41:36.307Z,4.90
2022-08-21T07:44:03.673Z,4.53
2022-08-21T07:46:30.534Z,4.20
2022-08-21T07:48:57.160Z,4.57
2022-08-21T07:51:28.280Z,5.13
2022-08-21T07:53:56.823Z,4.60
2022-08-21T07:56:23.667Z,4.73
2022-08-21T07:58:50.373Z,4.97
2022-08-21T08:01:17.703Z,5.07
2022-08-21T08:03:45.547Z,4.60
2022-08-21T08:06:13.400Z,5.00
2022-08-21T08:08:41.548Z,4.53
2022-08-21T08:11:16.146Z,5.33
2022-08-21T08:13:45.445Z,4.93
2022-08-21T08:16:12.191Z,5.30
2022-08-21T08:18:39.271Z,5.57
2022-08-21T08:21:06.419Z,5.40
2022-08-21T08:23:33.605Z,5.93
2022-08-21T08:26:03.263Z,6.30
2022-08-21T08:28:32.527Z,5.30
2022-08-21T08:31:00.569Z,5.47
2022-08-21T08:33:27.639Z,5.60
2022-08-21T08:35:54.859Z,5.30
2022-08-21T08:38:24.582Z,5.50
2022-08-21T08:41:03.548Z,6.10
2022-08-21T08:43:33.033Z,5.80
2022-08-21T08:46:03.520Z,4.97
2022-08-21T08:48:51.093Z,4.80
2022-08-21T08:51:28.368Z,4.80
2022-08-21T08:54:03.768Z,5.50
2022-08-21T08:56:33.619Z,5.17
2022-08-21T08:59:14.737Z,4.37
2022-08-21T09:01:42.918Z,4.20
2022-08-21T09:04:13.428Z,3.90
2022-08-21T09:07:06.402Z,3.40
2022-08-21T09:09:44.638Z,3.23
2022-08-21T09:12:35.694Z,3.70
2022-08-21T09:15:20.961Z,4.60
2022-08-21T09:17:50.667Z,4.70
2022-08-21T09:20:23.261Z,4.60
2022-08-21T09:23:29.242Z,4.60
2022-08-21T09:26:01.796Z,4.73
2022-08-21T09:28:34.022Z,4.50
2022-08-21T09:31:03.615Z,4.33
2022-08-21T09:33:30.640Z,4.83
2022-08-21T09:36:00.602Z,4.40
2022-08-21T09:38:32.642Z,3.90
2022-08-21T09:41:09.411Z,4.40
2022-08-21T09:43:37.364Z,3.83
2022-08-21T09:46:22.222Z,3.83
2022-08-21T09:48:51.637Z,4.27
2022-08-21T09:51:22.014Z,3.97
2022-08-21T09:54:15.306Z,4.70
2022-08-21T09:57:19.971Z,4.17
2022-08-21T09:59:47.862Z,3.40
2022-08-21T10:02:23.414Z,3.60
2022-08-21T10:05:02.248Z,3.37
2022-08-21T10:07:31.869Z,2.87
2022-08-21T10:10:04.961Z,3.70
2022-08-21T10:12:57.827Z,2.80
2022-08-21T10:15:33.809Z,3.40
2022-08-21T10:18:18.535Z,2.87
2022-08-21T10:20:54.065Z,2.43
2022-08-21T10:23:44.849Z,2.77
2022-08-21T10:26:44.904Z,3.53
2022-08-21T10:29:22.249Z,3.07
2022-08-21T10:31:51.958Z,3.07
2022-08-21T10:34:40.678Z,3.07
2022-08-21T10:37:24.101Z,2.70
2022-08-21T10:40:18.899Z,3.53
2022-08-21T10:43:03.607Z,2.70
2022-08-21T10:45:49.230Z,2.73
2022-08-21T10:48:26.636Z,2.70
2022-08-21T10:51:04.979Z,2.50
2022-08-21T10:54:00.388Z,2.60
2022-08-21T10:56:31.232Z,2.50
2022-08-21T10:59:24.139Z,2.83
2022-08-21T11:01:58.350Z,3.00
2022-08-21T11:04:46.222Z,3.30
2022-08-21T11:07:21.807Z,3.23
2022-08-21T11:09:50.272Z,3.17
2022-08-21T11:12:36.869Z,3.00
2022-08-21T11:15:28.921Z,2.80
2022-08-21T11:18:28.042Z,3.33
2022-08-21T11:21:19.542Z,3.10
2022-08-21T11:24:13.831Z,2.93
2022-08-21T11:26:52.180Z,3.03
2022-08-21T11:29:24.686Z,2.83
2022-08-21T11:32:00.386Z,2.40
2022-08-21T11:35:06.959Z,2.17
2022-08-21T11:37:59.238Z,2.77
2022-08-21T11:41:01.143Z,2.50
2022-08-21T11:43:46.454Z,2.87
2022-08-21T11:46:28.182Z,2.10
2022-08-21T11:49:05.267Z,2.50
2022-08-21T11:52:00.498Z,3.10
2022-08-21T11:54:46.193Z,2.17
2022-08-21T11:57:31.974Z,2.43
2022-08-21T12:00:09.035Z,2.80
2022-08-21T12:02:42.176Z,3.10
2022-08-21T12:05:12.174Z,2.43
2022-08-21T12:07:40.854Z,3.70
2022-08-21T12:10:12.127Z,2.40
2022-08-21T12:12:41.329Z,2.80
2022-08-21T12:15:26.992Z,2.67
2022-08-21T12:18:23.814Z,2.20
2022-08-21T12:21:18.095Z,2.90
2022-08-21T12:24:02.326Z,2.47
2022-08-21T12:26:36.542Z,2.57
2022-08-21T12:29:22.737Z,3.10
2022-08-21T12:32:12.363Z,3.27
2022-08-21T12:34:45.694Z,2.70
2022-08-21T12:37:25.430Z,2.83
2022-08-21T12:39:54.102Z,2.70
2022-08-21T12:42:32.413Z,3.10
2022-08-21T12:45:14.522Z,2.60
2022-08-21T12:48:05.736Z,2.40
2022-08-21T12:50:49.084Z,2.43
2022-08-21T12:54:01.635Z,2.37
2022-08-21T12:56:34.805Z,2.83
2022-08-21T12:59:05.945Z,2.83
2022-08-21T13:01:41.318Z,2.40
2022-08-21T13:04:13.208Z,2.70
2022-08-21T13:06:47.216Z,2.90
2022-08-21T13:09:17.702Z,2.87
2022-08-21T13:11:46.606Z,3.07
2022-08-21T13:14:22.110Z,2.60
2022-08-21T13:16:53.476Z,2.93
2022-08-21T13:19:24.045Z,2.30
2022-08-21T13:21:53.465Z,2.43
2022-08-21T13:24:41.731Z,2.80
2022-08-21T13:27:38.424Z,2.70
2022-08-21T13:30:23.216Z,2.63
2022-08-21T13:32:52.802Z,2.70
2022-08-21T13:35:22.856Z,2.50
2022-08-21T13:37:52.666Z,2.47
2022-08-21T13:40:52.513Z,2.20
2022-08-21T13:43:23.225Z,2.60
2022-08-21T13:45:53.847Z,2.23
2022-08-21T13:48:22.766Z,2.20
2022-08-21T13:50:49.993Z,2.50
2022-08-21T13:53:32.366Z,2.40
2022-08-21T13:56:01.386Z,2.30
2022-08-21T13:58:41.885Z,2.67
2022-08-21T14:01:21.606Z,2.50
2022-08-21T14:03:50.286Z,2.30
2022-08-21T14:06:23.372Z,2.60
2022-08-21T14:08:59.727Z,2.80
2022-08-21T14:11:33.893Z,2.20
2022-08-21T14:14:04.983Z,2.30
2022-08-21T14:16:54.828Z,2.50
2022-08-21T14:19:26.562Z,2.40
2022-08-21T14:21:55.485Z,2.70
2022-08-21T14:24:29.678Z,2.37
2022-08-21T14:27:05.897Z,2.20
2022-08-21T14:29:42.042Z,2.70
2022-08-21T14:32:21.792Z,2.63
2022-08-21T14:34:51.606Z,2.20
2022-08-21T14:37:18.851Z,2.57
2022-08-21T14:39:46.517Z,2.53
2022-08-21T14:42:13.879Z,2.50
2022-08-21T14:44:40.586Z,2.77
2022-08-21T14:47:08.487Z,2.40
2022-08-21T14:49:35.178Z,2.27
2022-08-21T14:52:02.018Z,2.30
2022-08-21T14:54:32.303Z,2.80
2022-08-21T14:57:06.435Z,2.17
2022-08-21T14:59:34.124Z,2.20
2022-08-21T15:02:01.661Z,4.90
2022-08-21T15:04:28.655Z,2.70
2022-08-21T15:06:55.389Z,2.30
2022-08-21T15:09:22.296Z,2.57
2022-08-21T15:11:49.473Z,1.90
2022-08-21T15:14:24.003Z,2.10
2022-08-21T15:16:51.894Z,2.10
2022-08-21T15:19:18.630Z,2.33
2022-08-21T15:21:45.349Z,2.27
2022-08-21T15:24:12.120Z,2.00
2022-08-21T15:26:38.816Z,2.60
2022-08-21T15:29:08.281Z,2.00
2022-08-21T15:31:36.487Z,1.90
2022-08-21T15:34:03.792Z,2.40
2022-08-21T15:36:30.471Z,2.20
2022-08-21T15:38:57.159Z,2.20
2022-08-21T15:41:23.964Z,2.23
2022-08-21T15:43:53.837Z,2.50
2022-08-21T15:46:22.267Z,2.33
2022-08-21T15:48:49.095Z,2.30
2022-08-21T15:51:17.564Z,1.90
2022-08-21T15:53:44.997Z,2.20
2022-08-21T15:56:23.205Z,2.43
2022-08-21T15:58:53.328Z,2.10
2022-08-21T16:01:21.825Z,2.70
2022-08-21T16:03:51.215Z,2.00
2022-08-21T16:06:17.900Z,2.67
2022-08-21T16:09:04.457Z,2.40
2022-08-21T16:11:31.150Z,2.40
2022-08-21T16:13:57.982Z,2.03
2022-08-21T16:16:25.659Z,2.57
2022-08-21T16:18:53.817Z,2.80
2022-08-21T16:21:21.615Z,2.20
2022-08-21T16:23:48.827Z,2.20
2022-08-21T16:26:18.617Z,2.00
2022-08-21T16:28:46.384Z,2.33
2022-08-21T16:31:15.408Z,2.20
2022-08-21T16:33:52.298Z,2.40
2022-08-21T16:36:26.431Z,1.80
2022-08-21T16:38:55.004Z,2.30
2022-08-21T16:41:23.194Z,2.37
2022-08-21T16:43:51.898Z,2.00
2022-08-21T16:46:20.590Z,2.20
2022-08-21T16:48:47.673Z,1.87
2022-08-21T16:51:15.738Z,1.73
2022-08-21T16:53:42.846Z,2.10
2022-08-21T16:56:12.168Z,1.83
2022-08-21T16:58:42.029Z,2.10
2022-08-21T17:01:12.740Z,2.13
2022-08-21T17:03:42.926Z,2.33
2022-08-21T17:06:10.130Z,1.90
2022-08-21T17:08:37.692Z,1.63
2022-08-21T17:11:07.396Z,2.50
2022-08-21T17:13:34.497Z,1.67
2022-08-21T17:16:01.395Z,2.57
2022-08-21T17:18:28.073Z,1.73
2022-08-21T17:20:55.207Z,1.90
2022-08-21T17:23:22.152Z,2.43
2022-08-21T17:25:52.603Z,1.43
2022-08-21T17:28:26.021Z,2.47
2022-08-21T17:30:55.631Z,2.07
2022-08-21T17:33:25.358Z,2.47
2022-08-21T17:35:53.342Z,1.80
2022-08-21T17:38:20.100Z,1.83
2022-08-21T17:40:48.278Z,1.47
2022-08-21T17:43:15.671Z,2.10
2022-08-21T17:45:44.392Z,1.73
2022-08-21T17:48:11.661Z,2.17
2022-08-21T17:50:39.773Z,1.93
2022-08-21T17:53:06.626Z,1.80
2022-08-21T17:55:34.234Z,1.97
2022-08-21T17:58:03.182Z,1.80
2022-08-21T18:00:31.177Z,1.60
2022-08-21T18:03:12.649Z,1.53
2022-08-21T18:05:42.119Z,1.30
2022-08-21T18:08:08.957Z,1.60
2022-08-21T18:10:36.370Z,1.33
2022-08-21T18:13:08.602Z,1.43
2022-08-21T18:15:35.616Z,1.47
2022-08-21T18:18:02.736Z,1.87
2022-08-21T18:20:29.628Z,1.63
2022-08-21T18:22:56.420Z,2.30
2022-08-21T18:25:23.371Z,1.40
2022-08-21T18:27:50.658Z,1.53
2022-08-21T18:30:22.370Z,1.70
2022-08-21T18:32:50.084Z,1.77
2022-08-21T18:35:17.368Z,1.53
2022-08-21T18:37:44.489Z,1.87
2022-08-21T18:40:12.061Z,1.90
2022-08-21T18:42:41.945Z,1.70
2022-08-21T18:45:19.660Z,2.17
2022-08-21T18:47:50.064Z,2.00
2022-08-21T18:50:21.480Z,1.80
2022-08-21T18:52:53.576Z,1.87
2022-08-21T18:55:41.619Z,1.70
2022-08-21T18:58:08.638Z,1.50
2022-08-21T19:00:45.701Z,1.90
2022-08-21T19:03:23.722Z,1.70
2022-08-21T19:05:51.959Z,2.00
2022-08-21T19:08:21.285Z,1.20
2022-08-21T19:10:50.102Z,2.63
2022-08-21T19:13:19.658Z,2.60
2022-08-21T19:15:52.916Z,2.20
2022-08-21T19:18:28.155Z,2.77
2022-08-21T19:20:57.380Z,2.80
2022-08-21T19:23:29.056Z,2.40
2022-08-21T19:26:00.583Z,2.73
2022-08-21T19:28:49.846Z,2.53
2022-08-21T19:31:25.891Z,2.57
2022-08-21T19:34:03.402Z,2.53
2022-08-21T19:36:31.498Z,2.17
2022-08-21T19:38:58.678Z,2.80
2022-08-21T19:41:32.151Z,2.87
2022-08-21T19:44:02.425Z,2.27
2022-08-21T19:46:32.642Z,2.20
2022-08-21T19:49:04.329Z,2.97
2022-08-21T19:51:34.554Z,2.50
2022-08-21T19:54:01.788Z,2.30
2022-08-21T19:56:32.360Z,1.93
2022-08-21T19:59:03.036Z,2.13
2022-08-21T20:01:32.845Z,2.37
2022-08-21T20:03:59.813Z,2.70
2022-08-21T20:06:26.972Z,2.40
2022-08-21T20:08:55.139Z,2.37
2022-08-21T20:11:31.792Z,2.30
2022-08-21T20:14:00.781Z,2.30
2022-08-21T20:16:28.630Z,2.27
2022-08-21T20:18:55.833Z,2.43
2022-08-21T20:21:22.629Z,2.13
2022-08-21T20:23:49.815Z,1.93
2022-08-21T20:26:17.528Z,2.37
2022-08-21T20:28:45.779Z,2.40
2022-08-21T20:31:14.683Z,2.10
2022-08-21T20:33:41.762Z,2.63
2022-08-21T20:36:08.720Z,2.07
2022-08-21T20:38:36.414Z,2.13
2022-08-21T20:41:03.215Z,2.43
2022-08-21T20:43:31.536Z,2.50
2022-08-21T20:46:00.626Z,1.37
2022-08-21T20:48:49.300Z,2.10
2022-08-21T20:51:26.384Z,1.70
2022-08-21T20:54:23.908Z,1.70
2022-08-21T20:56:59.819Z,2.23
2022-08-21T20:59:35.791Z,2.10
2022-08-21T21:02:22.708Z,2.90
2022-08-21T21:05:19.692Z,2.37
2022-08-21T21:08:11.899Z,2.10
2022-08-21T21:10:54.560Z,2.63
2022-08-21T21:13:43.697Z,2.77
2022-08-21T21:16:21.786Z,2.10
2022-08-21T21:18:53.809Z,2.30
2022-08-21T21:21:43.131Z,2.37
2022-08-21T21:24:29.132Z,3.37
2022-08-21T21:27:11.628Z,2.30
2022-08-21T21:30:23.472Z,3.00
2022-08-21T21:32:51.093Z,2.00
2022-08-21T21:41:44.734Z,2.20
2022-08-21T21:44:43.591Z,2.57
2022-08-21T21:47:42.488Z,2.33
2022-08-21T21:50:19.056Z,2.47
2022-08-21T21:52:48.591Z,1.90
2022-08-21T21:55:24.124Z,2.50
2022-08-21T21:58:25.595Z,2.20
2022-08-21T22:01:03.183Z,1.93
2022-08-21T22:03:53.850Z,2.93
2022-08-21T22:06:29.696Z,2.20
2022-08-21T22:08:57.576Z,2.40
2022-08-21T22:11:59.786Z,1.73
2022-08-21T22:14:37.510Z,1.67
2022-08-21T22:17:26.010Z,2.43
2022-08-21T22:19:57.411Z,1.73
2022-08-21T22:22:26.978Z,2.00
2022-08-21T22:25:00.859Z,2.00
2022-08-21T22:27:38.626Z,2.37
2022-08-21T22:30:10.384Z,1.87
2022-08-21T22:32:45.705Z,1.80
2022-08-21T22:35:33.249Z,1.67
2022-08-21T22:38:01.397Z,1.90
2022-08-21T22:40:35.686Z,2.13
2022-08-21T22:43:20.848Z,1.50
2022-08-21T22:46:01.125Z,1.47
2022-08-21T22:48:49.595Z,1.77
2022-08-21T22:51:55.360Z,1.47
2022-08-21T22:54:33.170Z,2.27
2022-08-21T22:57:04.184Z,1.80
2022-08-21T22:59:35.022Z,2.00
2022-08-21T23:02:32.913Z,1.47
2022-08-21T23:05:05.085Z,1.60
2022-08-21T23:07:43.728Z,1.70
2022-08-21T23:10:39.498Z,1.77
2022-08-21T23:13:16.534Z,1.73
2022-08-21T23:15:45.927Z,1.20
2022-08-21T23:18:16.215Z,2.00
2022-08-21T23:20:59.741Z,1.70
2022-08-21T23:23:29.029Z,1.40
2022-08-21T23:26:17.348Z,1.40
2022-08-21T23:28:50.466Z,1.77
2022-08-21T23:31:45.996Z,1.83
2022-08-21T23:34:32.420Z,1.70
2022-08-21T23:37:51.649Z,1.80
2022-08-21T23:40:28.058Z,1.27
2022-08-21T23:43:13.576Z,1.63
2022-08-21T23:46:33.380Z,1.80
2022-08-21T23:49:00.862Z,1.90
2022-08-21T23:51:58.362Z,2.07
2022-08-21T23:54:26.901Z,1.67
2022-08-21T23:57:58.092Z,2.07
